Time;durP1;ratioP1;P1;durP2;ratioP2;P2;SDS_P1;SDS_P2;PMS_P1;PMS_P2;Temp;Humidity;BMP_temperature;BMP_pressure;BME280_temperature;BME280_humidity;BME280_pressure;Samples;Min_cycle;Max_cycle;Signal;HPM_P1;HPM_P2
2021/11/19 00:00:21;;;;;;;16.15;8.93;;;6.40;99.90;;;;;;5027495;28;20192;-80
2021/11/19 00:02:48;;;;;;;12.52;7.93;;;6.30;99.90;;;;;;5021022;28;20218;-80
2021/11/19 00:05:15;;;;;;;13.68;8.50;;;6.30;99.90;;;;;;5020759;28;20211;-80
2021/11/19 00:07:43;;;;;;;15.85;8.25;;;6.50;99.90;;;;;;5021030;28;20207;-79
2021/11/19 00:10:11;;;;;;;14.75;8.93;;;6.10;99.90;;;;;;5019944;28;20196;-79
2021/11/19 00:12:38;;;;;;;14.43;8.65;;;6.10;99.90;;;;;;5019698;28;20295;-79
2021/11/19 00:15:07;;;;;;;12.13;8.43;;;6.00;99.90;;;;;;5020452;28;20233;-79
2021/11/19 00:17:35;;;;;;;14.35;8.10;;;6.00;99.90;;;;;;5020028;28;20660;-80
2021/11/19 00:20:02;;;;;;;16.48;7.40;;;6.00;99.90;;;;;;5020189;28;20276;-78
2021/11/19 00:22:29;;;;;;;12.98;8.10;;;6.20;99.90;;;;;;5019408;28;20669;-79
2021/11/19 00:24:57;;;;;;;16.17;8.60;;;6.10;99.90;;;;;;5019753;28;20228;-79
2021/11/19 00:27:25;;;;;;;15.00;9.10;;;5.90;99.90;;;;;;5019704;28;20213;-79
2021/11/19 00:29:52;;;;;;;10.77;7.63;;;6.00;99.90;;;;;;5018671;28;20208;-79
2021/11/19 00:32:19;;;;;;;11.07;7.70;;;6.20;99.90;;;;;;5024637;28;20212;-77
2021/11/19 00:34:48;;;;;;;15.95;8.48;;;6.10;99.90;;;;;;5038400;28;20232;-78
2021/11/19 00:37:16;;;;;;;17.83;7.90;;;5.90;99.90;;;;;;5031372;28;20658;-79
2021/11/19 00:39:43;;;;;;;14.27;7.55;;;6.20;99.90;;;;;;5027507;28;20303;-79
2021/11/19 00:42:12;;;;;;;12.77;7.90;;;6.00;99.90;;;;;;5021983;28;20227;-79
2021/11/19 00:44:39;;;;;;;10.95;7.55;;;6.00;99.90;;;;;;5022258;28;20315;-79
2021/11/19 00:47:07;;;;;;;11.50;8.18;;;6.00;99.90;;;;;;5019536;28;20219;-79
2021/11/19 00:49:37;;;;;;;11.73;7.85;;;6.10;99.90;;;;;;5019262;28;20207;-80
2021/11/19 00:52:06;;;;;;;11.48;8.25;;;5.90;99.90;;;;;;5019844;28;20196;-79
2021/11/19 00:54:32;;;;;;;13.15;8.05;;;6.10;99.90;;;;;;5020087;28;20246;-79
2021/11/19 00:57:18;;;;;;;10.48;7.30;;;6.30;99.90;;;;;;5023178;28;20238;-79
2021/11/19 00:59:46;;;;;;;11.45;7.30;;;6.00;99.90;;;;;;5021022;28;20200;-79
2021/11/19 01:02:17;;;;;;;13.02;8.27;;;6.00;99.90;;;;;;5018556;28;20684;-78
2021/11/19 01:04:44;;;;;;;11.30;7.82;;;5.90;99.90;;;;;;5018488;28;20254;-79
2021/11/19 01:07:12;;;;;;;11.35;8.05;;;5.90;99.90;;;;;;5028301;28;20207;-78
2021/11/19 01:09:42;;;;;;;13.32;7.60;;;6.10;99.90;;;;;;5021737;28;20218;-80
2021/11/19 01:12:13;;;;;;;13.57;8.40;;;5.80;99.90;;;;;;5019975;28;20207;-80
2021/11/19 01:14:44;;;;;;;12.98;7.95;;;5.90;99.90;;;;;;5018170;28;20604;-79
2021/11/19 01:17:14;;;;;;;14.93;9.40;;;5.70;99.90;;;;;;5018304;28;20569;-80
2021/11/19 01:19:44;;;;;;;14.65;8.13;;;5.80;99.90;;;;;;5017849;28;20212;-80
2021/11/19 01:22:17;;;;;;;15.30;8.90;;;5.70;99.90;;;;;;5018047;28;20199;-80
2021/11/19 01:24:44;;;;;;;10.55;7.50;;;5.90;99.90;;;;;;5018313;28;20238;-80
2021/11/19 01:27:12;;;;;;;14.45;7.57;;;5.90;99.90;;;;;;5017942;28;20208;-79
2021/11/19 01:29:40;;;;;;;16.83;8.20;;;6.00;99.90;;;;;;5018416;28;20291;-80
2021/11/19 01:32:18;;;;;;;12.50;7.68;;;5.80;99.90;;;;;;5018566;28;20226;-79
2021/11/19 01:34:45;;;;;;;12.43;8.25;;;5.90;99.90;;;;;;5022424;28;20227;-79
2021/11/19 01:37:13;;;;;;;11.73;7.15;;;5.90;99.90;;;;;;5019664;28;20647;-78
2021/11/19 01:39:41;;;;;;;12.13;7.85;;;6.10;99.90;;;;;;5018757;28;20215;-80
2021/11/19 01:42:11;;;;;;;10.95;8.00;;;6.00;99.90;;;;;;5019169;28;20225;-80
2021/11/19 01:44:44;;;;;;;11.07;7.55;;;5.70;99.90;;;;;;5030734;28;20228;-79
2021/11/19 01:47:13;;;;;;;10.85;7.45;;;5.80;99.90;;;;;;5033698;28;20202;-79
2021/11/19 01:49:41;;;;;;;13.48;7.80;;;6.00;99.90;;;;;;5022386;28;20219;-80
2021/11/19 01:52:18;;;;;;;12.93;7.20;;;5.90;99.90;;;;;;5022130;28;20697;-78
2021/11/19 01:54:50;;;;;;;14.52;8.13;;;5.60;99.90;;;;;;5020505;28;20243;-79
2021/11/19 01:57:21;;;;;;;11.80;8.10;;;5.80;99.90;;;;;;5017837;28;20188;-79
2021/11/19 01:59:53;;;;;;;12.63;7.78;;;5.70;99.90;;;;;;5017389;28;20199;-79
2021/11/19 02:02:22;;;;;;;10.23;7.00;;;5.60;99.90;;;;;;5016997;28;20192;-79
2021/11/19 02:04:52;;;;;;;15.65;8.15;;;5.30;99.90;;;;;;5017619;28;20587;-80
2021/11/19 02:07:22;;;;;;;13.52;6.82;;;5.50;99.90;;;;;;5025822;28;20186;-79
2021/11/19 02:09:55;;;;;;;14.90;8.63;;;5.40;99.90;;;;;;5024115;28;20290;-79
2021/11/19 02:12:29;;;;;;;13.57;7.47;;;5.50;99.90;;;;;;5018988;28;20192;-79
2021/11/19 02:15:08;;;;;;;14.80;8.50;;;5.40;99.90;;;;;;5019522;28;20243;-79
2021/11/19 02:17:35;;;;;;;18.10;9.02;;;5.30;99.90;;;;;;5019061;28;20211;-79
2021/11/19 02:20:06;;;;;;;10.65;7.28;;;5.40;99.90;;;;;;5016391;28;20203;-79
2021/11/19 02:22:36;;;;;;;10.70;7.30;;;5.50;99.90;;;;;;5017362;28;20188;-80
2021/11/19 02:25:11;;;;;;;10.80;7.18;;;5.50;99.90;;;;;;5018068;28;20227;-79
2021/11/19 02:27:42;;;;;;;11.55;8.55;;;5.50;99.90;;;;;;5028860;28;20282;-80
2021/11/19 02:30:13;;;;;;;11.68;6.28;;;5.60;99.90;;;;;;5021889;28;20196;-79
2021/11/19 02:32:42;;;;;;;11.38;8.07;;;5.50;99.90;;;;;;5017228;28;20191;-78
2021/11/19 02:35:13;;;;;;;13.35;8.35;;;5.30;99.90;;;;;;5016627;28;20318;-79
2021/11/19 02:37:45;;;;;;;10.60;7.40;;;5.30;99.90;;;;;;5018669;28;20192;-79
2021/11/19 02:40:15;;;;;;;11.98;7.97;;;5.30;99.90;;;;;;5020430;28;20196;-79
2021/11/19 02:42:45;;;;;;;12.00;7.82;;;5.20;99.90;;;;;;5024151;28;20204;-79
2021/11/19 02:45:18;;;;;;;14.23;8.43;;;5.40;99.90;;;;;;5023511;28;20713;-78
2021/11/19 02:47:45;;;;;;;12.27;8.52;;;5.20;99.90;;;;;;5024424;28;20191;-78
2021/11/19 02:50:14;;;;;;;10.63;7.03;;;5.20;99.90;;;;;;5023118;28;20303;-79
2021/11/19 02:52:44;;;;;;;10.65;6.88;;;5.20;99.90;;;;;;5017527;28;20242;-80
2021/11/19 02:55:15;;;;;;;10.07;6.97;;;5.20;99.90;;;;;;5016632;28;20239;-80
2021/11/19 02:57:43;;;;;;;11.27;7.82;;;5.00;99.90;;;;;;5017944;28;20196;-78
2021/11/19 03:00:13;;;;;;;11.32;8.02;;;5.20;99.90;;;;;;5016632;28;20207;-79
2021/11/19 03:02:41;;;;;;;11.10;7.90;;;5.10;99.90;;;;;;5017833;28;20203;-79
2021/11/19 03:05:11;;;;;;;11.88;8.20;;;5.20;99.90;;;;;;5018606;28;20235;-78
2021/11/19 03:07:38;;;;;;;13.13;8.07;;;5.30;99.90;;;;;;5029311;28;20222;-77
2021/11/19 03:10:09;;;;;;;12.18;8.90;;;5.20;99.90;;;;;;5034937;28;20255;-77
2021/11/19 03:12:36;;;;;;;12.57;8.85;;;5.20;99.90;;;;;;5036167;28;20262;-77
2021/11/19 03:15:08;;;;;;;13.35;7.70;;;5.10;99.90;;;;;;5034224;28;20294;-79
2021/11/19 03:17:35;;;;;;;13.55;7.38;;;5.20;99.90;;;;;;5032998;28;20180;-79
2021/11/19 03:20:06;;;;;;;12.55;8.10;;;5.00;99.90;;;;;;5034908;28;20203;-79
2021/11/19 03:22:34;;;;;;;13.05;8.50;;;5.00;99.90;;;;;;5035547;28;20192;-79
2021/11/19 03:25:01;;;;;;;12.73;8.43;;;5.10;99.90;;;;;;5034282;28;20251;-78
2021/11/19 03:27:30;;;;;;;12.50;8.07;;;5.30;99.90;;;;;;5033787;28;20746;-79
2021/11/19 03:29:57;;;;;;;13.35;8.13;;;5.30;99.90;;;;;;5034961;28;20284;-79
2021/11/19 03:32:27;;;;;;;14.88;8.23;;;5.30;99.90;;;;;;5034972;28;20199;-78
2021/11/19 03:34:55;;;;;;;12.52;8.40;;;5.20;99.90;;;;;;5035524;28;20254;-79
2021/11/19 03:37:23;;;;;;;13.90;9.20;;;5.10;99.90;;;;;;5035305;28;20327;-79
2021/11/19 03:39:50;;;;;;;13.07;8.00;;;5.10;99.90;;;;;;5035214;28;20223;-79
2021/11/19 03:42:19;;;;;;;12.85;8.23;;;5.00;99.90;;;;;;5034938;28;20235;-79
2021/11/19 03:44:49;;;;;;;14.77;7.88;;;5.10;99.90;;;;;;5035491;28;20230;-79
2021/11/19 03:47:19;;;;;;;11.93;7.90;;;4.90;99.90;;;;;;5031943;28;20212;-80
2021/11/19 03:49:47;;;;;;;12.68;7.93;;;4.90;99.90;;;;;;5022833;28;20199;-80
2021/11/19 03:52:17;;;;;;;13.13;7.70;;;5.00;99.90;;;;;;5018243;28;20200;-80
2021/11/19 03:54:48;;;;;;;13.55;8.70;;;4.90;99.90;;;;;;5022109;28;20266;-79
2021/11/19 03:57:18;;;;;;;12.65;8.70;;;5.20;99.90;;;;;;5018189;28;20211;-79
2021/11/19 03:59:45;;;;;;;14.88;8.05;;;5.30;99.90;;;;;;5016724;28;20207;-79
2021/11/19 04:02:13;;;;;;;18.30;7.82;;;5.20;99.90;;;;;;5019243;28;20216;-79
2021/11/19 04:04:42;;;;;;;10.20;7.30;;;5.00;99.90;;;;;;5018291;28;20310;-79
2021/11/19 04:07:11;;;;;;;11.50;7.60;;;5.00;99.90;;;;;;5021148;28;20203;-79
2021/11/19 04:09:38;;;;;;;12.13;7.63;;;4.90;99.90;;;;;;5019954;28;20203;-79
2021/11/19 04:12:08;;;;;;;12.98;8.13;;;4.80;99.90;;;;;;5020080;28;20208;-79
2021/11/19 04:14:35;;;;;;;11.50;7.57;;;4.90;99.90;;;;;;5020617;28;20234;-79
2021/11/19 04:17:02;;;;;;;12.80;7.28;;;5.10;99.90;;;;;;5021529;28;20226;-79
2021/11/19 04:19:31;;;;;;;13.20;7.72;;;4.80;99.90;;;;;;5020998;28;20562;-79
2021/11/19 04:22:01;;;;;;;12.18;7.97;;;4.80;99.90;;;;;;5019520;28;20631;-79
2021/11/19 04:24:30;;;;;;;10.35;6.85;;;4.90;99.90;;;;;;5021042;28;20263;-79
2021/11/19 04:26:57;;;;;;;13.00;7.95;;;5.00;99.90;;;;;;5021784;28;20292;-81
2021/11/19 04:29:25;;;;;;;11.02;7.50;;;5.00;99.90;;;;;;5019062;28;20302;-79
2021/11/19 04:31:52;;;;;;;12.18;7.50;;;4.90;99.90;;;;;;5019169;28;20238;-79
2021/11/19 04:34:19;;;;;;;10.32;7.60;;;4.80;99.90;;;;;;5019577;28;20258;-79
2021/11/19 04:36:46;;;;;;;13.30;8.45;;;4.80;99.90;;;;;;5019913;28;20277;-79
2021/11/19 04:39:13;;;;;;;10.80;7.13;;;4.90;99.90;;;;;;5019554;28;20289;-79
2021/11/19 04:41:41;;;;;;;16.45;8.27;;;4.80;99.90;;;;;;5019522;28;20230;-80
2021/11/19 04:44:08;;;;;;;12.05;8.15;;;4.90;99.90;;;;;;5018830;28;20614;-79
2021/11/19 04:46:37;;;;;;;14.07;7.93;;;4.80;99.90;;;;;;5019041;28;20207;-79
2021/11/19 04:49:05;;;;;;;12.70;8.68;;;4.90;99.90;;;;;;5023452;28;20274;-79
2021/11/19 04:51:34;;;;;;;12.48;7.85;;;4.80;99.90;;;;;;5024656;28;20215;-80
2021/11/19 04:54:02;;;;;;;13.60;8.15;;;4.70;99.90;;;;;;5030430;28;20677;-79
2021/11/19 04:56:29;;;;;;;14.35;7.90;;;4.70;99.90;;;;;;5041455;23;20242;-80
2021/11/19 04:58:56;;;;;;;11.45;7.55;;;4.70;99.90;;;;;;5019172;28;20211;-80
2021/11/19 05:01:26;;;;;;;10.73;7.75;;;4.80;99.90;;;;;;5018731;28;20203;-80
2021/11/19 05:03:54;;;;;;;9.88;8.07;;;4.80;99.90;;;;;;5018668;28;20615;-80
2021/11/19 05:06:22;;;;;;;11.35;7.95;;;4.60;99.90;;;;;;5018844;28;20235;-80
2021/11/19 05:08:49;;;;;;;13.48;7.95;;;4.70;99.90;;;;;;5018685;28;20677;-80
2021/11/19 05:11:18;;;;;;;11.30;7.72;;;4.60;99.90;;;;;;5023624;28;20222;-80
2021/11/19 05:13:46;;;;;;;13.23;8.23;;;4.60;99.90;;;;;;5019349;28;20641;-80
2021/11/19 05:16:15;;;;;;;11.90;7.90;;;4.40;99.90;;;;;;5017659;28;20232;-80
2021/11/19 05:18:44;;;;;;;12.40;7.95;;;4.50;99.90;;;;;;5018434;28;20204;-83
2021/11/19 05:21:15;;;;;;;13.18;7.97;;;4.50;99.90;;;;;;5018446;28;20222;-83
2021/11/19 05:23:42;;;;;;;12.55;7.78;;;4.50;99.90;;;;;;5019132;28;20303;-81
2021/11/19 05:26:09;;;;;;;11.77;8.15;;;4.40;99.90;;;;;;5019014;28;20230;-80
2021/11/19 05:28:36;;;;;;;11.50;7.95;;;4.60;99.90;;;;;;5017841;28;20207;-83
2021/11/19 05:31:04;;;;;;;12.95;7.82;;;4.60;99.90;;;;;;5018737;28;20235;-83
2021/11/19 05:33:32;;;;;;;13.15;8.95;;;4.60;99.90;;;;;;5019031;28;20207;-80
2021/11/19 05:36:00;;;;;;;13.43;7.95;;;4.50;99.90;;;;;;5022559;28;20227;-83
2021/11/19 05:38:29;;;;;;;12.90;8.40;;;4.70;99.90;;;;;;5018695;28;20211;-82
2021/11/19 05:40:57;;;;;;;16.65;9.38;;;4.60;99.90;;;;;;5033501;28;20254;-82
2021/11/19 05:43:24;;;;;;;12.35;7.75;;;4.50;99.90;;;;;;5022595;28;20246;-80
2021/11/19 05:45:51;;;;;;;11.70;8.40;;;4.60;99.90;;;;;;5018965;28;20214;-80
2021/11/19 05:48:18;;;;;;;13.55;8.07;;;4.50;99.90;;;;;;5018511;28;20203;-80
2021/11/19 05:50:48;;;;;;;13.05;8.48;;;4.50;99.90;;;;;;5018468;28;20620;-80
2021/11/19 05:53:15;;;;;;;17.10;8.93;;;4.50;99.90;;;;;;5018237;28;20218;-81
2021/11/19 05:55:46;;;;;;;23.10;8.20;;;4.70;99.90;;;;;;5017513;28;20211;-81
2021/11/19 05:58:15;;;;;;;12.23;9.50;;;4.40;99.90;;;;;;5018136;28;20243;-81
2021/11/19 06:00:45;;;;;;;14.60;9.70;;;4.70;99.90;;;;;;5018050;28;20291;-81
2021/11/19 06:03:12;;;;;;;12.65;8.63;;;4.50;99.90;;;;;;5018151;28;20217;-81
2021/11/19 06:05:39;;;;;;;12.85;8.05;;;4.40;99.90;;;;;;5017874;28;20207;-81
2021/11/19 06:08:07;;;;;;;13.98;8.27;;;4.40;99.90;;;;;;5017311;28;20290;-81
2021/11/19 06:10:37;;;;;;;11.40;7.80;;;4.40;99.90;;;;;;5017259;28;20208;-81
2021/11/19 06:13:08;;;;;;;16.60;9.52;;;4.70;99.90;;;;;;5018708;28;20199;-81
2021/11/19 06:15:38;;;;;;;14.52;9.38;;;4.50;99.90;;;;;;5017333;28;20198;-81
2021/11/19 06:18:08;;;;;;;12.43;8.60;;;4.40;99.90;;;;;;5017178;28;20223;-81
2021/11/19 06:20:37;;;;;;;14.43;9.15;;;4.50;99.90;;;;;;5017807;28;20202;-81
2021/11/19 06:23:09;;;;;;;13.25;9.05;;;4.40;99.90;;;;;;5018147;28;20207;-82
2021/11/19 06:25:37;;;;;;;15.90;9.13;;;4.50;99.90;;;;;;5018195;28;20194;-81
2021/11/19 06:28:08;;;;;;;15.13;8.80;;;4.70;99.90;;;;;;5022182;28;20214;-80
2021/11/19 06:30:35;;;;;;;14.20;9.02;;;4.70;99.90;;;;;;5026671;28;20242;-80
2021/11/19 06:33:03;;;;;;;12.65;7.82;;;4.70;99.90;;;;;;5019800;28;20247;-82
2021/11/19 06:35:31;;;;;;;13.05;8.40;;;4.70;99.90;;;;;;5019025;28;20208;-81
2021/11/19 06:37:58;;;;;;;14.10;9.27;;;4.70;99.90;;;;;;5017562;28;20330;-81
2021/11/19 06:40:28;;;;;;;13.85;8.93;;;4.90;99.90;;;;;;5018799;28;20199;-81
2021/11/19 06:42:57;;;;;;;15.82;8.05;;;5.00;99.90;;;;;;5018281;28;20207;-81
2021/11/19 06:45:26;;;;;;;13.75;8.70;;;5.10;99.90;;;;;;5020633;28;20219;-81
2021/11/19 06:47:53;;;;;;;14.00;8.45;;;5.10;99.90;;;;;;5023964;28;20224;-81
2021/11/19 06:50:25;;;;;;;17.88;10.30;;;5.20;99.90;;;;;;5026432;28;20275;-81
2021/11/19 06:52:52;;;;;;;15.18;8.70;;;5.30;99.90;;;;;;5031172;28;20203;-81
2021/11/19 06:55:19;;;;;;;13.32;8.20;;;5.10;99.90;;;;;;5019859;28;20211;-81
2021/11/19 06:57:47;;;;;;;14.35;8.60;;;5.10;99.90;;;;;;5017227;28;20231;-82
2021/11/19 07:00:18;;;;;;;12.18;8.02;;;5.00;99.90;;;;;;5019933;28;20298;-80
2021/11/19 07:02:47;;;;;;;14.98;8.85;;;5.30;99.90;;;;;;5020651;28;20269;-81
2021/11/19 07:05:14;;;;;;;16.02;8.50;;;5.30;99.90;;;;;;5017262;28;20218;-81
2021/11/19 07:07:41;;;;;;;13.70;8.38;;;5.40;99.90;;;;;;5020434;28;20235;-80
2021/11/19 07:10:10;;;;;;;14.98;8.32;;;5.40;99.90;;;;;;5020513;28;20613;-81
2021/11/19 07:12:37;;;;;;;19.33;8.65;;;5.20;99.90;;;;;;5019001;28;20192;-80
2021/11/19 07:15:05;;;;;;;14.73;8.23;;;5.10;99.90;;;;;;5016804;28;20213;-79
2021/11/19 07:17:32;;;;;;;11.68;7.90;;;5.20;99.90;;;;;;5015877;28;20234;-80
2021/11/19 07:20:00;;;;;;;13.95;8.68;;;5.40;99.90;;;;;;5020821;28;20272;-80
2021/11/19 07:22:28;;;;;;;15.43;9.40;;;5.50;99.90;;;;;;5021403;28;20306;-81
2021/11/19 07:24:55;;;;;;;11.68;8.10;;;5.30;99.90;;;;;;5018907;28;20664;-81
2021/11/19 07:27:23;;;;;;;12.93;8.13;;;5.50;99.90;;;;;;5019003;28;20246;-81
2021/11/19 07:29:49;;;;;;;12.90;9.02;;;5.50;99.90;;;;;;5019007;28;20290;-80
2021/11/19 07:32:16;;;;;;;15.55;8.85;;;5.40;99.90;;;;;;5016059;28;20225;-80
2021/11/19 07:34:44;;;;;;;15.30;9.45;;;5.50;99.90;;;;;;5027371;28;20218;-81
2021/11/19 07:37:12;;;;;;;15.13;8.35;;;5.60;99.90;;;;;;5028090;28;20231;-80
2021/11/19 07:39:40;;;;;;;13.18;8.63;;;5.50;99.90;;;;;;5028866;28;20218;-81
2021/11/19 07:42:07;;;;;;;14.00;7.90;;;5.60;99.90;;;;;;5025022;28;20204;-79
2021/11/19 07:44:34;;;;;;;15.93;9.25;;;5.60;99.90;;;;;;5021186;28;20214;-79
2021/11/19 07:47:00;;;;;;;15.18;9.30;;;5.60;99.90;;;;;;5019245;28;20224;-80
2021/11/19 07:49:28;;;;;;;11.35;7.65;;;5.60;99.90;;;;;;5018892;28;20218;-80
2021/11/19 07:51:55;;;;;;;15.68;9.27;;;5.90;99.90;;;;;;5019575;28;20208;-80
2021/11/19 07:54:24;;;;;;;14.15;9.27;;;6.00;99.90;;;;;;5020577;28;20195;-80
2021/11/19 07:56:50;;;;;;;13.27;8.82;;;6.20;99.90;;;;;;5018695;28;20269;-80
2021/11/19 07:59:19;;;;;;;14.88;8.95;;;6.10;99.90;;;;;;5018957;28;20685;-80
2021/11/19 08:01:47;;;;;;;13.38;9.10;;;6.20;99.90;;;;;;5020464;28;20221;-81
2021/11/19 08:04:15;;;;;;;14.38;9.07;;;6.20;99.90;;;;;;5024232;28;20241;-80
2021/11/19 08:06:43;;;;;;;15.25;8.27;;;6.10;99.90;;;;;;5028735;28;20258;-81
2021/11/19 08:09:11;;;;;;;14.73;8.00;;;6.10;99.90;;;;;;5037395;28;20191;-81
2021/11/19 08:11:42;;;;;;;13.15;8.90;;;6.20;99.90;;;;;;5035843;28;20204;-80
2021/11/19 08:14:09;;;;;;;14.18;9.25;;;6.40;99.90;;;;;;5030239;28;20296;-79
2021/11/19 08:16:46;;;;;;;19.17;9.60;;;6.30;99.90;;;;;;5031138;28;20237;-80
2021/11/19 08:19:24;;;;;;;13.52;8.43;;;6.50;99.90;;;;;;5025056;28;20191;-78
2021/11/19 08:21:53;;;;;;;13.80;8.75;;;6.30;99.90;;;;;;5020080;28;20196;-80
2021/11/19 08:24:20;;;;;;;14.60;9.10;;;6.20;99.90;;;;;;5019652;28;20204;-80
2021/11/19 08:26:52;;;;;;;13.68;9.35;;;6.30;99.90;;;;;;5020315;28;20323;-81
2021/11/19 08:29:25;;;;;;;13.45;9.32;;;6.40;99.90;;;;;;5019080;28;20216;-79
2021/11/19 08:31:53;;;;;;;15.00;8.75;;;6.50;99.90;;;;;;5016789;28;20227;-78
2021/11/19 08:34:21;;;;;;;15.90;10.23;;;6.40;99.90;;;;;;5019219;28;20218;-81
2021/11/19 08:36:48;;;;;;;20.38;9.98;;;6.50;99.90;;;;;;5019815;28;20266;-78
2021/11/19 08:39:18;;;;;;;16.02;9.95;;;6.50;99.90;;;;;;5024091;28;20199;-80
2021/11/19 08:41:46;;;;;;;22.20;10.18;;;6.70;99.90;;;;;;5028403;28;20319;-80
2021/11/19 08:44:15;;;;;;;19.30;10.40;;;6.80;99.90;;;;;;5019489;28;20208;-80
2021/11/19 08:46:44;;;;;;;18.30;10.30;;;6.80;99.90;;;;;;5020498;28;20223;-80
2021/11/19 08:49:13;;;;;;;17.42;10.63;;;7.10;99.90;;;;;;5022653;28;20210;-80
2021/11/19 08:51:42;;;;;;;17.20;10.57;;;6.90;99.90;;;;;;5020175;28;20296;-81
2021/11/19 08:54:10;;;;;;;15.18;9.30;;;6.90;99.90;;;;;;5018650;28;20304;-82
2021/11/19 08:56:41;;;;;;;20.67;10.38;;;7.10;99.90;;;;;;5018737;28;20246;-81
2021/11/19 08:59:10;;;;;;;15.43;10.23;;;7.00;99.90;;;;;;5018394;28;20308;-80
2021/11/19 09:01:40;;;;;;;18.48;10.93;;;7.00;99.90;;;;;;5023040;28;20243;-81
2021/11/19 09:04:07;;;;;;;17.00;10.25;;;7.10;99.90;;;;;;5031120;28;20204;-81
2021/11/19 09:06:35;;;;;;;17.85;10.90;;;7.20;99.90;;;;;;5026483;28;20355;-81
2021/11/19 09:09:03;;;;;;;20.60;11.10;;;7.20;99.90;;;;;;5020616;28;20204;-82
2021/11/19 09:11:30;;;;;;;20.83;12.25;;;7.30;99.90;;;;;;5019496;28;20273;-83
2021/11/19 09:13:59;;;;;;;20.20;11.48;;;7.40;99.90;;;;;;5018534;28;20208;-82
2021/11/19 09:16:29;;;;;;;18.35;10.70;;;7.20;99.90;;;;;;5018713;28;20239;-82
2021/11/19 09:19:21;;;;;;;18.33;10.80;;;7.60;99.90;;;;;;5021786;28;20317;-82
2021/11/19 09:21:50;;;;;;;19.92;11.23;;;7.80;99.90;;;;;;5015527;28;20222;-83
2021/11/19 09:24:21;;;;;;;19.63;11.40;;;8.00;99.90;;;;;;5018302;28;20208;-80
2021/11/19 09:26:51;;;;;;;18.00;11.30;;;8.10;99.90;;;;;;5020359;28;20300;-83
2021/11/19 09:29:22;;;;;;;19.33;11.70;;;8.10;99.90;;;;;;5032746;28;20314;-81
2021/11/19 09:31:49;;;;;;;19.53;10.63;;;8.10;99.90;;;;;;5023571;28;20280;-81
2021/11/19 09:34:20;;;;;;;18.85;11.13;;;8.20;99.90;;;;;;5018669;28;20506;-81
2021/11/19 09:36:47;;;;;;;23.42;11.48;;;8.20;99.90;;;;;;5018102;28;20312;-81
2021/11/19 09:39:17;;;;;;;19.33;12.30;;;8.20;99.90;;;;;;5018843;28;20260;-81
2021/11/19 09:41:49;;;;;;;20.23;11.63;;;8.30;99.90;;;;;;5017217;28;20200;-82
2021/11/19 09:44:57;;;;;;;22.20;11.95;;;8.20;99.90;;;;;;5030463;28;20201;-81
2021/11/19 09:48:04;;;;;;;20.83;12.30;;;8.30;99.90;;;;;;5021422;28;20259;-84
2021/11/19 09:51:10;;;;;;;18.17;12.63;;;8.50;99.90;;;;;;5020889;28;20215;-83
2021/11/19 09:54:19;;;;;;;20.38;12.88;;;8.50;99.90;;;;;;5018294;28;20193;-83
2021/11/19 09:57:01;;;;;;;21.85;12.30;;;8.50;99.90;;;;;;5016936;28;20249;-80
2021/11/19 09:59:34;;;;;;;22.95;13.57;;;8.50;99.90;;;;;;5021647;28;20426;-82
2021/11/19 10:02:32;;;;;;;24.65;13.05;;;8.20;99.90;;;;;;5021429;28;20724;-80
2021/11/19 10:05:33;;;;;;;21.63;13.68;;;8.00;99.90;;;;;;5021325;28;20661;-80
2021/11/19 10:08:18;;;;;;;23.10;13.63;;;8.00;99.90;;;;;;5020957;28;20673;-82
2021/11/19 10:10:56;;;;;;;26.17;15.10;;;8.00;99.90;;;;;;5022517;28;20208;-80
2021/11/19 10:13:47;;;;;;;25.50;14.25;;;8.00;99.90;;;;;;5020436;28;20235;-81
2021/11/19 10:16:25;;;;;;;23.42;13.18;;;8.30;99.90;;;;;;5019490;28;20227;-81
2021/11/19 10:18:58;;;;;;;20.80;12.85;;;8.50;99.90;;;;;;5019713;28;20324;-80
2021/11/19 10:21:27;;;;;;;22.77;13.48;;;8.40;99.90;;;;;;5018127;28;20617;-81
2021/11/19 10:23:57;;;;;;;26.88;14.00;;;8.30;99.90;;;;;;5016932;28;20275;-80
2021/11/19 10:26:30;;;;;;;25.23;14.90;;;8.30;99.90;;;;;;5017766;28;20308;-80
2021/11/19 10:29:02;;;;;;;23.90;14.45;;;8.30;99.90;;;;;;5017642;28;20288;-82
2021/11/19 10:31:29;;;;;;;27.23;15.27;;;8.10;99.90;;;;;;5017863;28;20192;-81
2021/11/19 10:34:08;;;;;;;26.02;14.38;;;8.00;99.90;;;;;;5017808;28;20704;-80
2021/11/19 10:36:41;;;;;;;25.13;14.68;;;8.00;99.90;;;;;;5016972;28;20237;-80
2021/11/19 10:39:34;;;;;;;19.92;12.93;;;8.20;99.90;;;;;;5015890;28;20309;-80
2021/11/19 10:42:26;;;;;;;23.23;14.52;;;8.40;99.90;;;;;;5016688;28;20252;-80
2021/11/19 10:45:23;;;;;;;26.10;13.98;;;8.50;99.90;;;;;;5016677;28;20285;-82
2021/11/19 10:48:20;;;;;;;22.38;14.80;;;8.50;99.90;;;;;;5013789;28;20229;-82
2021/11/19 10:51:08;;;;;;;22.02;14.65;;;8.30;99.90;;;;;;5017266;28;20285;-82
2021/11/19 10:54:16;;;;;;;22.90;14.20;;;8.20;99.90;;;;;;5016356;28;20525;-82
2021/11/19 10:56:50;;;;;;;23.15;14.70;;;8.10;99.90;;;;;;5015972;28;20253;-81
2021/11/19 10:59:33;;;;;;;21.30;14.32;;;8.10;99.90;;;;;;5018267;28;20258;-84
2021/11/19 11:02:15;;;;;;;23.33;15.17;;;8.40;99.90;;;;;;5021411;28;20212;-84
2021/11/19 11:04:52;;;;;;;24.40;15.73;;;8.50;99.90;;;;;;5041651;23;20494;-79
2021/11/19 11:07:25;;;;;;;22.80;14.15;;;8.70;99.90;;;;;;5019635;28;20233;-79
2021/11/19 11:09:53;;;;;;;26.80;15.50;;;8.60;99.90;;;;;;5033550;28;20201;-80
2021/11/19 11:12:31;;;;;;;25.80;15.65;;;8.60;99.90;;;;;;5023154;28;20205;-79
2021/11/19 11:15:24;;;;;;;24.73;13.75;;;8.60;99.90;;;;;;5031583;28;20287;-80
2021/11/19 11:18:06;;;;;;;23.92;15.73;;;8.50;99.90;;;;;;5022243;28;20251;-79
2021/11/19 11:20:36;;;;;;;28.52;16.13;;;8.50;99.90;;;;;;5024020;28;20220;-81
2021/11/19 11:23:23;;;;;;;22.90;15.23;;;8.40;99.90;;;;;;5024896;28;20275;-81
2021/11/19 11:26:07;;;;;;;24.95;15.25;;;8.40;99.90;;;;;;5024006;28;20256;-82
2021/11/19 11:28:47;;;;;;;26.33;16.42;;;8.50;99.90;;;;;;5024680;28;20191;-80
2021/11/19 11:31:26;;;;;;;24.35;14.65;;;8.10;99.90;;;;;;5021499;28;20196;-80
2021/11/19 11:33:56;;;;;;;25.93;16.87;;;8.40;99.90;;;;;;5023569;28;20599;-79
2021/11/19 11:36:32;;;;;;;22.45;15.68;;;8.60;99.90;;;;;;5027655;28;20448;-80
2021/11/19 11:39:07;;;;;;;26.67;16.38;;;8.60;99.90;;;;;;5028317;28;20221;-79
2021/11/19 11:41:52;;;;;;;26.20;16.08;;;8.60;99.90;;;;;;5030599;28;20217;-82
2021/11/19 11:44:21;;;;;;;23.52;15.98;;;8.60;99.90;;;;;;5028385;28;20316;-79
2021/11/19 11:47:00;;;;;;;29.55;16.60;;;8.70;99.90;;;;;;5021979;28;20299;-80
2021/11/19 11:49:45;;;;;;;26.05;16.52;;;8.90;99.90;;;;;;5030798;28;20192;-79
2021/11/19 11:52:56;;;;;;;23.55;15.90;;;8.90;99.90;;;;;;5026230;28;20308;-79
2021/11/19 11:55:33;;;;;;;28.85;15.90;;;8.70;99.90;;;;;;5014935;28;20292;-80
2021/11/19 11:58:28;;;;;;;24.58;15.48;;;8.80;99.90;;;;;;5020224;28;20204;-79
2021/11/19 12:01:03;;;;;;;26.10;16.20;;;8.70;99.90;;;;;;5020895;28;20358;-79
2021/11/19 12:03:42;;;;;;;25.27;15.38;;;8.70;99.90;;;;;;5020955;28;20200;-79
2021/11/19 12:06:13;;;;;;;24.83;15.60;;;8.80;99.90;;;;;;5019209;28;20235;-79
2021/11/19 12:08:52;;;;;;;24.83;16.55;;;8.60;99.90;;;;;;5022247;28;20291;-79
2021/11/19 12:12:02;;;;;;;23.95;16.00;;;8.60;99.90;;;;;;5021147;28;20200;-78
2021/11/19 12:14:39;;;;;;;21.25;12.52;;;8.70;99.90;;;;;;5021289;28;20591;-80
2021/11/19 12:17:14;;;;;;;25.88;14.40;;;8.80;99.90;;;;;;5020567;28;20222;-78
2021/11/19 12:19:45;;;;;;;23.17;17.15;;;8.50;99.90;;;;;;5019476;28;20249;-80
2021/11/19 12:22:16;;;;;;;23.45;13.07;;;8.50;99.90;;;;;;5019396;28;20593;-79
2021/11/19 12:24:48;;;;;;;26.42;13.93;;;8.70;99.90;;;;;;5018699;28;20668;-79
2021/11/19 12:27:36;;;;;;;23.10;13.50;;;8.80;99.90;;;;;;5019675;28;20213;-79
2021/11/19 12:30:16;;;;;;;20.63;12.27;;;8.70;99.90;;;;;;5020027;28;20570;-78
2021/11/19 12:32:46;;;;;;;24.77;12.48;;;8.60;99.90;;;;;;5019802;28;20267;-81
2021/11/19 12:35:18;;;;;;;19.10;10.55;;;8.70;99.90;;;;;;5019903;28;20235;-81
2021/11/19 12:38:00;;;;;;;19.58;12.45;;;8.90;99.90;;;;;;5019675;28;20208;-79
2021/11/19 12:40:35;;;;;;;22.88;12.93;;;8.90;99.90;;;;;;5018746;28;20200;-79
2021/11/19 12:43:27;;;;;;;22.20;12.95;;;8.70;99.90;;;;;;5018767;28;20196;-78
2021/11/19 12:45:58;;;;;;;18.15;12.55;;;8.70;99.90;;;;;;5029126;28;20595;-78
2021/11/19 12:49:12;;;;;;;21.08;11.95;;;8.80;99.90;;;;;;5028060;28;20660;-79
2021/11/19 12:51:46;;;;;;;18.10;12.70;;;9.10;99.90;;;;;;5022058;28;20693;-80
2021/11/19 12:54:33;;;;;;;25.67;11.50;;;9.00;99.90;;;;;;5020981;28;20812;-79
2021/11/19 12:57:38;;;;;;;19.60;11.57;;;8.90;99.90;;;;;;5019833;28;20437;-79
2021/11/19 13:00:16;;;;;;;23.63;11.75;;;9.00;99.90;;;;;;5019933;28;20204;-80
2021/11/19 13:02:46;;;;;;;20.17;13.05;;;8.70;99.90;;;;;;5019911;28;20192;-79
2021/11/19 13:05:24;;;;;;;24.93;14.73;;;8.60;99.90;;;;;;5020005;28;20241;-79
2021/11/19 13:08:09;;;;;;;25.48;12.13;;;8.60;99.90;;;;;;5018851;28;20965;-77